Time;durP1;ratioP1;P1;durP2;ratioP2;P2;SDS_P1;SDS_P2;PMS_P1;PMS_P2;Temp;Humidity;BMP_temperature;BMP_pressure;BME280_temperature;BME280_humidity;BME280_pressure;Samples;Min_cycle;Max_cycle;Signal;HPM_P1;HPM_P2
2022/04/12 00:00:44;;;;;;;8.83;4.00;;;;;;;;;;4957580;28;20435;-73
2022/04/12 00:03:10;;;;;;;5.82;3.60;;;;;;;;;;4957675;28;20529;-71
2022/04/12 00:05:37;;;;;;;10.43;4.32;;;;;;;;;;4957610;28;20188;-73
2022/04/12 00:08:03;;;;;;;8.18;4.65;;;;;;;;;;4957640;28;20206;-73
2022/04/12 00:10:29;;;;;;;7.93;4.38;;;;;;;;;;4957393;28;20181;-71
2022/04/12 00:12:56;;;;;;;7.90;4.32;;;;;;;;;;4956400;28;20666;-73
2022/04/12 00:15:22;;;;;;;9.60;3.97;;;;;;;;;;4957759;28;20193;-73
2022/04/12 00:20:34;;;;;;;7.60;4.40;;;;;;;;;;4957303;29;20473;-75
2022/04/12 00:23:01;;;;;;;9.32;4.18;;;;;;;;;;4957367;28;20206;-72
2022/04/12 00:25:27;;;;;;;7.60;3.85;;;;;;;;;;4957504;28;20616;-74
2022/04/12 00:27:54;;;;;;;7.82;3.67;;;;;;;;;;4957049;28;20615;-76
2022/04/12 00:30:21;;;;;;;7.18;4.00;;;;;;;;;;4957204;28;20542;-73
2022/04/12 00:32:47;;;;;;;6.28;4.40;;;;;;;;;;4957212;28;20260;-72
2022/04/12 00:35:13;;;;;;;6.45;4.30;;;;;;;;;;4957233;28;20213;-74
2022/04/12 00:37:39;;;;;;;6.25;4.50;;;;;;;;;;4957192;28;20181;-72
2022/04/12 00:40:06;;;;;;;8.50;4.43;;;;;;;;;;4971835;28;20519;-72
2022/04/12 00:42:32;;;;;;;8.15;4.85;;;;;;;;;;4956674;28;20488;-75
2022/04/12 00:44:58;;;;;;;9.23;4.22;;;;;;;;;;4971819;28;20194;-73
2022/04/12 00:47:24;;;;;;;14.93;4.43;;;;;;;;;;4971780;28;20598;-74
2022/04/12 00:49:50;;;;;;;9.57;6.22;;;;;;;;;;4956890;28;20206;-74
2022/04/12 00:52:17;;;;;;;10.37;4.77;;;;;;;;;;4956350;28;20206;-73
2022/04/12 00:54:43;;;;;;;9.90;4.93;;;;;;;;;;4956815;28;20418;-74
2022/04/12 00:57:09;;;;;;;6.43;3.80;;;;;;;;;;4956858;28;20329;-72
2022/04/12 00:59:35;;;;;;;9.57;5.17;;;;;;;;;;4956753;28;20214;-72
2022/04/12 01:02:02;;;;;;;8.00;4.80;;;;;;;;;;4956096;28;20471;-75
2022/04/12 01:04:28;;;;;;;10.50;5.07;;;;;;;;;;4956899;28;20186;-73
2022/04/12 01:06:54;;;;;;;10.10;4.27;;;;;;;;;;4956826;28;20547;-74
2022/04/12 01:09:21;;;;;;;7.95;4.30;;;;;;;;;;4956766;28;20526;-73
2022/04/12 01:11:48;;;;;;;7.32;4.85;;;;;;;;;;4956456;28;20271;-73
2022/04/12 01:14:17;;;;;;;9.60;5.82;;;;;;;;;;4956391;28;20255;-72
2022/04/12 01:16:43;;;;;;;10.50;4.40;;;;;;;;;;4971344;28;20635;-74
2022/04/12 01:19:09;;;;;;;10.68;4.90;;;;;;;;;;4956476;28;20185;-73
2022/04/12 01:21:55;;;;;;;7.15;4.43;;;;;;;;;;4955862;28;20210;-74
2022/04/12 01:24:21;;;;;;;7.25;4.55;;;;;;;;;;4955837;28;20184;-73
2022/04/12 01:26:47;;;;;;;6.70;5.07;;;;;;;;;;4956562;28;20212;-73
2022/04/12 01:29:14;;;;;;;6.60;4.30;;;;;;;;;;4956313;28;20537;-75
2022/04/12 01:31:40;;;;;;;10.30;4.93;;;;;;;;;;4970580;28;20218;-73
2022/04/12 01:34:06;;;;;;;8.63;5.05;;;;;;;;;;4956126;28;20201;-74
2022/04/12 01:36:32;;;;;;;8.50;4.93;;;;;;;;;;4955897;28;20599;-72
2022/04/12 01:38:58;;;;;;;6.07;4.07;;;;;;;;;;4956061;28;20501;-72
2022/04/12 01:41:24;;;;;;;9.77;5.77;;;;;;;;;;4955511;28;20475;-73
2022/04/12 01:43:50;;;;;;;6.03;3.93;;;;;;;;;;4956047;28;20417;-72
2022/04/12 01:46:16;;;;;;;7.50;4.87;;;;;;;;;;4955730;28;20429;-74
2022/04/12 01:48:42;;;;;;;8.03;5.60;;;;;;;;;;4955711;28;20499;-74
2022/04/12 01:51:08;;;;;;;5.78;3.83;;;;;;;;;;4955459;28;20430;-74
2022/04/12 01:53:35;;;;;;;7.27;4.53;;;;;;;;;;4970546;28;20259;-72
2022/04/12 01:56:01;;;;;;;9.43;4.65;;;;;;;;;;4955574;28;20429;-73
2022/04/12 01:58:27;;;;;;;7.68;5.03;;;;;;;;;;4955572;28;20210;-75
2022/04/12 02:00:53;;;;;;;7.00;4.30;;;;;;;;;;4955254;28;20217;-71
2022/04/12 02:03:20;;;;;;;8.23;4.93;;;;;;;;;;4955497;28;20472;-73
2022/04/12 02:05:46;;;;;;;7.00;4.35;;;;;;;;;;4955580;28;20942;-72
2022/04/12 02:08:12;;;;;;;6.10;4.07;;;;;;;;;;4955514;28;20261;-74
2022/04/12 02:10:38;;;;;;;9.90;5.10;;;;;;;;;;4955048;28;20216;-73
2022/04/12 02:13:04;;;;;;;7.90;4.60;;;;;;;;;;4955305;28;20965;-74
2022/04/12 02:15:31;;;;;;;12.83;4.50;;;;;;;;;;4955238;28;20784;-72
2022/04/12 02:17:57;;;;;;;6.38;4.10;;;;;;;;;;4955402;28;20416;-74
2022/04/12 02:20:23;;;;;;;8.17;5.20;;;;;;;;;;4955104;28;20193;-71
2022/04/12 02:22:49;;;;;;;6.15;4.78;;;;;;;;;;4955136;28;20504;-74
2022/04/12 02:25:15;;;;;;;10.43;4.00;;;;;;;;;;4955454;28;20213;-74
2022/04/12 02:27:41;;;;;;;9.77;4.80;;;;;;;;;;4955368;28;20417;-74
2022/04/12 02:30:07;;;;;;;9.20;4.07;;;;;;;;;;4970015;28;20458;-73
2022/04/12 02:32:33;;;;;;;8.65;3.90;;;;;;;;;;4954729;28;20522;-72
2022/04/12 02:35:00;;;;;;;6.78;4.90;;;;;;;;;;4969364;28;20216;-74
2022/04/12 02:37:27;;;;;;;8.00;4.50;;;;;;;;;;4955019;28;20191;-73
2022/04/12 02:39:53;;;;;;;12.13;5.03;;;;;;;;;;4955094;28;20261;-71
2022/04/12 02:42:19;;;;;;;12.80;5.45;;;;;;;;;;4954583;28;20206;-75
2022/04/12 02:44:45;;;;;;;10.60;5.57;;;;;;;;;;4954884;28;20245;-72
2022/04/12 02:47:11;;;;;;;13.10;5.32;;;;;;;;;;4954970;28;20409;-75
2022/04/12 02:49:38;;;;;;;6.35;4.55;;;;;;;;;;4955015;28;20883;-74
2022/04/12 02:52:04;;;;;;;9.68;5.70;;;;;;;;;;4954696;28;20208;-74
2022/04/12 02:54:30;;;;;;;8.45;5.35;;;;;;;;;;4954850;28;20253;-73
2022/04/12 02:56:56;;;;;;;7.37;4.70;;;;;;;;;;4969593;28;20213;-74
2022/04/12 02:59:22;;;;;;;6.97;5.30;;;;;;;;;;4969702;28;20450;-72
2022/04/12 03:01:48;;;;;;;10.15;5.00;;;;;;;;;;4954603;28;20820;-73
2022/04/12 03:04:14;;;;;;;8.40;5.20;;;;;;;;;;4969777;28;20237;-74
2022/04/12 03:06:40;;;;;;;8.30;4.80;;;;;;;;;;4969771;28;20914;-73
2022/04/12 03:09:06;;;;;;;7.85;4.85;;;;;;;;;;4954832;28;20421;-73
2022/04/12 03:11:32;;;;;;;9.73;5.60;;;;;;;;;;4954607;28;20214;-74
2022/04/12 03:13:58;;;;;;;6.32;4.28;;;;;;;;;;4954724;28;20421;-74
2022/04/12 03:16:24;;;;;;;7.53;4.97;;;;;;;;;;4954748;28;20229;-73
2022/04/12 03:18:50;;;;;;;10.48;5.43;;;;;;;;;;4954777;28;20277;-73
2022/04/12 03:21:16;;;;;;;8.23;5.07;;;;;;;;;;4954056;28;20235;-75
2022/04/12 03:23:42;;;;;;;5.03;3.83;;;;;;;;;;4954727;28;20405;-74
2022/04/12 03:26:07;;;;;;;7.90;4.60;;;;;;;;;;4954799;28;20415;-72
2022/04/12 03:28:33;;;;;;;5.47;3.63;;;;;;;;;;4954721;28;20417;-75
2022/04/12 03:31:00;;;;;;;4.63;4.13;;;;;;;;;;4954136;28;20406;-74
2022/04/12 03:33:25;;;;;;;7.28;4.50;;;;;;;;;;4954415;28;20417;-74
2022/04/12 03:35:51;;;;;;;12.93;5.30;;;;;;;;;;4954749;28;20274;-75
2022/04/12 03:38:17;;;;;;;11.07;5.53;;;;;;;;;;4954683;28;20415;-73
2022/04/12 03:40:46;;;;;;;8.63;5.57;;;;;;;;;;4954189;28;20417;-72
2022/04/12 03:43:12;;;;;;;10.10;5.45;;;;;;;;;;4968821;28;20468;-72
2022/04/12 03:45:38;;;;;;;7.47;5.20;;;;;;;;;;4954360;28;20270;-72
2022/04/12 03:48:04;;;;;;;8.73;5.47;;;;;;;;;;4957270;28;20421;-73
2022/04/12 03:50:31;;;;;;;9.80;5.65;;;;;;;;;;4957584;28;20269;-73
2022/04/12 03:52:57;;;;;;;7.55;4.80;;;;;;;;;;4957765;28;20202;-75
2022/04/12 03:55:34;;;;;;;10.25;6.35;;;;;;;;;;4957505;28;20199;-73
2022/04/12 03:58:02;;;;;;;8.88;6.03;;;;;;;;;;4957917;28;20181;-75
2022/04/12 04:00:28;;;;;;;7.55;5.05;;;;;;;;;;4957538;28;20182;-72
2022/04/12 04:02:55;;;;;;;7.80;5.68;;;;;;;;;;4972522;28;20275;-75
2022/04/12 04:05:21;;;;;;;11.07;4.95;;;;;;;;;;4957561;28;20186;-74
2022/04/12 04:07:47;;;;;;;7.85;5.20;;;;;;;;;;4957628;28;20169;-72
2022/04/12 04:10:13;;;;;;;7.90;4.70;;;;;;;;;;4957258;28;20175;-71
2022/04/12 04:12:39;;;;;;;6.90;4.60;;;;;;;;;;4957371;28;20969;-73
2022/04/12 04:15:11;;;;;;;13.38;4.97;;;;;;;;;;4957583;28;20425;-71
2022/04/12 04:17:38;;;;;;;9.25;5.07;;;;;;;;;;4957321;28;20798;-72
2022/04/12 04:20:04;;;;;;;9.38;4.80;;;;;;;;;;4957428;28;20183;-74
2022/04/12 04:22:30;;;;;;;9.45;5.15;;;;;;;;;;4957024;28;20214;-74
2022/04/12 04:24:56;;;;;;;7.93;5.10;;;;;;;;;;4957238;28;20592;-74
2022/04/12 04:27:23;;;;;;;8.70;5.00;;;;;;;;;;4972029;28;20410;-74
2022/04/12 04:29:49;;;;;;;6.72;4.60;;;;;;;;;;4957021;28;20447;-74
2022/04/12 04:32:15;;;;;;;7.10;5.03;;;;;;;;;;4956945;28;20242;-74
2022/04/12 04:34:41;;;;;;;9.00;4.57;;;;;;;;;;4957260;28;20882;-74
2022/04/12 04:37:07;;;;;;;9.40;4.67;;;;;;;;;;4957068;28;20457;-75
2022/04/12 04:39:33;;;;;;;9.03;5.10;;;;;;;;;;4971776;28;20897;-74
2022/04/12 04:41:59;;;;;;;7.70;5.07;;;;;;;;;;4956441;28;20866;-73
2022/04/12 04:44:25;;;;;;;6.40;4.60;;;;;;;;;;4971761;28;20424;-74
2022/04/12 04:46:50;;;;;;;7.67;4.53;;;;;;;;;;4956986;28;20420;-73
2022/04/12 04:49:16;;;;;;;6.13;4.70;;;;;;;;;;4956915;28;20425;-73
2022/04/12 04:51:42;;;;;;;5.83;3.67;;;;;;;;;;4956282;28;20535;-74
2022/04/12 04:54:08;;;;;;;4.87;3.70;;;;;;;;;;4956671;28;20783;-74
2022/04/12 04:56:34;;;;;;;7.18;5.28;;;;;;;;;;4956570;28;20442;-73
2022/04/12 04:59:00;;;;;;;6.93;4.07;;;;;;;;;;4955956;28;20187;-75
2022/04/12 05:01:26;;;;;;;6.10;4.50;;;;;;;;;;4956140;28;20458;-72
2022/04/12 05:03:52;;;;;;;7.03;4.13;;;;;;;;;;4956459;28;20676;-75
2022/04/12 05:06:18;;;;;;;7.13;4.30;;;;;;;;;;4956460;28;20414;-73
2022/04/12 05:08:44;;;;;;;6.03;4.13;;;;;;;;;;4971281;28;20470;-74
2022/04/12 05:11:10;;;;;;;4.75;3.78;;;;;;;;;;4956170;28;20433;-73
2022/04/12 05:13:36;;;;;;;3.37;3.07;;;;;;;;;;4971499;28;20708;-72
2022/04/12 05:16:02;;;;;;;6.70;3.90;;;;;;;;;;4956400;28;20410;-72
2022/04/12 05:18:29;;;;;;;6.50;3.50;;;;;;;;;;4956467;28;20411;-73
2022/04/12 05:20:55;;;;;;;6.25;4.13;;;;;;;;;;4956056;28;20827;-71
2022/04/12 05:23:21;;;;;;;6.47;4.07;;;;;;;;;;4956372;28;20214;-72
2022/04/12 05:25:47;;;;;;;7.13;3.70;;;;;;;;;;4971159;28;20236;-73
2022/04/12 05:28:13;;;;;;;9.15;3.35;;;;;;;;;;4956013;28;20228;-74
2022/04/12 05:30:38;;;;;;;6.30;4.38;;;;;;;;;;4955825;28;20318;-72
2022/04/12 05:33:04;;;;;;;5.90;3.90;;;;;;;;;;4956099;28;20225;-74
2022/04/12 05:35:30;;;;;;;5.78;3.80;;;;;;;;;;4956002;28;20957;-75
2022/04/12 05:37:58;;;;;;;5.80;4.37;;;;;;;;;;4955970;28;20187;-73
2022/04/12 05:40:24;;;;;;;6.93;4.60;;;;;;;;;;4955414;28;20949;-73
2022/04/12 05:42:51;;;;;;;7.00;4.80;;;;;;;;;;4955758;28;20218;-72
2022/04/12 05:45:17;;;;;;;7.35;4.30;;;;;;;;;;4955781;28;20527;-72
2022/04/12 05:47:53;;;;;;;6.47;4.38;;;;;;;;;;4955833;28;20174;-71
2022/04/12 05:50:23;;;;;;;8.23;4.15;;;;;;;;;;4955247;28;20183;-74
2022/04/12 05:52:49;;;;;;;8.13;4.70;;;;;;;;;;4955575;28;20575;-73
2022/04/12 05:55:19;;;;;;;7.85;4.68;;;;;;;;;;4955526;28;20312;-73
2022/04/12 05:57:53;;;;;;;11.75;5.30;;;;;;;;;;4955792;28;20303;-74
2022/04/12 06:00:20;;;;;;;9.70;5.65;;;;;;;;;;4969952;28;20185;-73
2022/04/12 06:02:47;;;;;;;8.80;5.53;;;;;;;;;;4955530;28;20210;-74
2022/04/12 06:05:13;;;;;;;9.77;5.88;;;;;;;;;;4955855;28;20262;-74
2022/04/12 06:07:40;;;;;;;12.57;5.57;;;;;;;;;;4955647;28;20233;-72
2022/04/12 06:10:07;;;;;;;9.20;5.40;;;;;;;;;;4970196;28;20187;-73
2022/04/12 06:12:33;;;;;;;8.20;5.45;;;;;;;;;;4955033;28;20243;-72
2022/04/12 06:14:59;;;;;;;7.10;5.33;;;;;;;;;;4955418;28;20224;-73
2022/04/12 06:17:32;;;;;;;7.47;4.87;;;;;;;;;;4955399;28;20472;-73
2022/04/12 06:20:01;;;;;;;11.70;5.25;;;;;;;;;;4955370;28;20427;-73
2022/04/12 06:22:27;;;;;;;8.88;5.40;;;;;;;;;;4954746;28;20266;-74
2022/04/12 06:24:53;;;;;;;11.20;5.57;;;;;;;;;;4955288;28;20182;-72
2022/04/12 06:27:19;;;;;;;8.33;5.10;;;;;;;;;;4970335;28;20415;-73
2022/04/12 06:29:45;;;;;;;9.27;4.60;;;;;;;;;;4955300;28;20462;-73
2022/04/12 06:32:11;;;;;;;7.80;4.97;;;;;;;;;;4955177;28;20455;-72
2022/04/12 06:34:36;;;;;;;9.53;4.87;;;;;;;;;;4955299;28;20424;-74
2022/04/12 06:37:02;;;;;;;9.30;5.07;;;;;;;;;;4970111;28;20837;-72
2022/04/12 06:39:28;;;;;;;7.18;5.28;;;;;;;;;;4955226;28;20484;-74
2022/04/12 06:41:54;;;;;;;8.40;4.30;;;;;;;;;;4954664;28;20213;-74
2022/04/12 06:44:20;;;;;;;6.80;4.20;;;;;;;;;;4955099;28;20418;-74
2022/04/12 06:46:46;;;;;;;11.53;6.20;;;;;;;;;;4954948;28;20424;-73
2022/04/12 06:49:12;;;;;;;6.53;4.20;;;;;;;;;;4969770;28;20433;-75
2022/04/12 06:51:38;;;;;;;8.15;4.45;;;;;;;;;;4954684;28;20535;-74
2022/04/12 06:54:04;;;;;;;7.97;4.05;;;;;;;;;;4954936;28;20187;-74
2022/04/12 06:56:30;;;;;;;5.37;4.50;;;;;;;;;;4954882;28;20211;-72
2022/04/12 06:58:56;;;;;;;9.73;5.00;;;;;;;;;;4954766;28;20422;-74
2022/04/12 07:01:22;;;;;;;7.37;4.10;;;;;;;;;;4954446;28;20441;-74
2022/04/12 07:03:48;;;;;;;7.83;4.63;;;;;;;;;;4955092;28;20427;-73
2022/04/12 07:06:14;;;;;;;7.60;4.40;;;;;;;;;;4954952;28;20417;-75
2022/04/12 07:08:40;;;;;;;7.30;4.27;;;;;;;;;;4969576;28;20792;-73
2022/04/12 07:11:06;;;;;;;6.33;4.00;;;;;;;;;;4969184;28;20462;-74
2022/04/12 07:13:32;;;;;;;6.43;4.30;;;;;;;;;;4954793;28;20450;-74
2022/04/12 07:15:58;;;;;;;6.27;4.87;;;;;;;;;;4954702;28;20441;-74
2022/04/12 07:18:24;;;;;;;6.30;4.60;;;;;;;;;;4954844;28;20421;-74
2022/04/12 07:20:50;;;;;;;6.03;3.70;;;;;;;;;;4969247;28;20430;-74
2022/04/12 07:23:16;;;;;;;6.53;4.03;;;;;;;;;;4958128;28;20480;-73
2022/04/12 07:25:42;;;;;;;6.30;3.63;;;;;;;;;;4958658;28;20917;-73
2022/04/12 07:28:08;;;;;;;4.17;3.77;;;;;;;;;;4958514;28;20423;-73
2022/04/12 07:30:33;;;;;;;6.70;4.00;;;;;;;;;;4972952;28;20453;-73
2022/04/12 07:32:59;;;;;;;7.47;3.47;;;;;;;;;;4958306;28;20436;-73
2022/04/12 07:35:27;;;;;;;5.47;3.50;;;;;;;;;;4958428;28;20423;-73
2022/04/12 07:37:53;;;;;;;7.13;3.70;;;;;;;;;;4958329;28;20844;-73
2022/04/12 07:40:19;;;;;;;3.40;2.80;;;;;;;;;;4958120;28;20933;-73
2022/04/12 07:42:45;;;;;;;4.50;3.23;;;;;;;;;;4958083;28;20476;-74
2022/04/12 07:45:11;;;;;;;3.83;2.77;;;;;;;;;;4958099;28;20963;-71
2022/04/12 07:47:37;;;;;;;4.57;3.20;;;;;;;;;;4958138;28;20422;-73
2022/04/12 07:50:03;;;;;;;4.17;3.17;;;;;;;;;;4958336;28;20418;-74
2022/04/12 07:52:29;;;;;;;3.70;2.40;;;;;;;;;;4957579;28;20504;-73
2022/04/12 07:54:56;;;;;;;4.63;3.03;;;;;;;;;;4957851;28;20450;-73
2022/04/12 07:57:22;;;;;;;3.20;2.80;;;;;;;;;;4957697;28;20423;-73
2022/04/12 07:59:47;;;;;;;5.17;2.83;;;;;;;;;;4972864;28;20435;-75
2022/04/12 08:02:13;;;;;;;4.40;2.77;;;;;;;;;;4957376;28;20475;-72
2022/04/12 08:04:41;;;;;;;5.73;2.43;;;;;;;;;;4972763;28;20433;-73
2022/04/12 08:07:07;;;;;;;3.70;2.60;;;;;;;;;;4957717;28;20420;-73
2022/04/12 08:09:34;;;;;;;5.50;2.17;;;;;;;;;;4957797;28;20500;-71
2022/04/12 08:12:00;;;;;;;3.43;2.27;;;;;;;;;;4957534;28;20439;-73
2022/04/12 08:14:26;;;;;;;2.67;2.33;;;;;;;;;;4957763;28;20499;-72
2022/04/12 08:16:52;;;;;;;3.17;2.23;;;;;;;;;;4957558;28;20462;-72
2022/04/12 08:19:18;;;;;;;3.93;2.30;;;;;;;;;;4957425;28;20421;-72
2022/04/12 08:21:44;;;;;;;4.17;1.70;;;;;;;;;;4957003;28;20478;-74
2022/04/12 08:24:10;;;;;;;3.97;2.10;;;;;;;;;;4957513;28;20419;-75
2022/04/12 08:26:37;;;;;;;3.27;2.40;;;;;;;;;;4957535;28;20913;-73
2022/04/12 08:29:03;;;;;;;3.13;2.00;;;;;;;;;;4972194;28;20785;-74
2022/04/12 08:31:29;;;;;;;7.07;2.93;;;;;;;;;;4957038;28;20436;-74
2022/04/12 08:33:55;;;;;;;10.03;2.30;;;;;;;;;;4971170;28;20403;-75
2022/04/12 08:36:22;;;;;;;3.33;2.33;;;;;;;;;;4957385;28;20428;-72
2022/04/12 08:38:49;;;;;;;4.33;2.60;;;;;;;;;;4957324;28;20392;-72
2022/04/12 08:41:16;;;;;;;4.90;2.70;;;;;;;;;;4956862;28;20503;-73
2022/04/12 08:43:42;;;;;;;3.50;3.20;;;;;;;;;;4971983;28;20395;-72
2022/04/12 08:46:09;;;;;;;3.40;2.70;;;;;;;;;;4957254;28;20417;-73
2022/04/12 08:48:35;;;;;;;3.93;2.30;;;;;;;;;;4957286;28;20424;-72
2022/04/12 08:51:02;;;;;;;2.13;1.93;;;;;;;;;;4956638;28;20432;-71
2022/04/12 08:53:29;;;;;;;3.50;2.40;;;;;;;;;;4971565;28;20431;-73
2022/04/12 08:55:55;;;;;;;4.40;2.50;;;;;;;;;;4956721;28;20532;-73
2022/04/12 08:58:22;;;;;;;4.23;2.10;;;;;;;;;;4956878;28;20499;-72
2022/04/12 09:00:49;;;;;;;3.30;2.37;;;;;;;;;;4956591;28;20479;-75
2022/04/12 09:03:15;;;;;;;3.13;1.77;;;;;;;;;;4956712;28;20449;-74
2022/04/12 09:05:42;;;;;;;2.87;2.10;;;;;;;;;;4971456;28;20413;-73
2022/04/12 09:08:27;;;;;;;3.47;2.70;;;;;;;;;;4956631;28;20413;-72
2022/04/12 09:10:57;;;;;;;7.20;2.83;;;;;;;;;;4956298;28;20401;-72
2022/04/12 09:13:23;;;;;;;4.37;3.30;;;;;;;;;;4956544;28;20417;-74
2022/04/12 09:15:50;;;;;;;5.17;3.83;;;;;;;;;;4971246;28;20483;-74
2022/04/12 09:18:30;;;;;;;5.90;4.10;;;;;;;;;;4971243;28;20425;-75
2022/04/12 09:21:08;;;;;;;10.50;4.03;;;;;;;;;;4956329;28;20512;-73
2022/04/12 09:23:35;;;;;;;7.20;3.77;;;;;;;;;;4956295;28;20460;-73
2022/04/12 09:26:01;;;;;;;7.50;3.80;;;;;;;;;;4956009;28;20513;-75
2022/04/12 09:28:39;;;;;;;5.33;4.10;;;;;;;;;;4971371;28;20512;-72
2022/04/12 09:31:14;;;;;;;6.97;4.47;;;;;;;;;;4956033;28;20433;-74
2022/04/12 09:33:41;;;;;;;5.47;3.63;;;;;;;;;;4956316;28;20435;-74
2022/04/12 09:36:07;;;;;;;5.67;4.50;;;;;;;;;;4970927;28;20428;-72
2022/04/12 09:38:35;;;;;;;6.67;3.80;;;;;;;;;;4955670;28;20416;-75
2022/04/12 09:41:20;;;;;;;9.20;3.50;;;;;;;;;;4970497;28;20977;-75
2022/04/12 09:44:08;;;;;;;9.30;5.00;;;;;;;;;;4955803;28;20421;-74
2022/04/12 09:46:38;;;;;;;6.50;4.00;;;;;;;;;;4970922;28;20858;-74
2022/04/12 09:49:04;;;;;;;5.90;3.60;;;;;;;;;;4970999;28;20768;-73
2022/04/12 09:51:32;;;;;;;6.17;4.07;;;;;;;;;;4955657;28;20855;-72
2022/04/12 09:53:58;;;;;;;8.30;3.97;;;;;;;;;;4955737;28;20512;-73
2022/04/12 09:56:25;;;;;;;5.27;4.30;;;;;;;;;;4955851;28;20523;-72
2022/04/12 09:58:52;;;;;;;6.53;4.00;;;;;;;;;;4955862;28;20562;-74
2022/04/12 10:01:18;;;;;;;11.20;3.97;;;;;;;;;;4955283;28;20429;-71
2022/04/12 10:03:45;;;;;;;5.23;3.77;;;;;;;;;;4955676;28;20409;-72
2022/04/12 10:06:13;;;;;;;5.53;3.03;;;;;;;;;;4955534;28;20412;-74
2022/04/12 10:08:40;;;;;;;4.30;3.00;;;;;;;;;;4970390;28;20913;-72
2022/04/12 10:11:07;;;;;;;5.40;3.57;;;;;;;;;;4955353;28;20452;-74
2022/04/12 10:13:34;;;;;;;7.60;3.33;;;;;;;;;;4970659;28;20894;-73
2022/04/12 10:16:00;;;;;;;3.97;3.17;;;;;;;;;;4955756;28;20843;-71
2022/04/12 10:18:26;;;;;;;9.27;3.30;;;;;;;;;;4955477;28;20429;-72
2022/04/12 10:20:52;;;;;;;3.63;2.60;;;;;;;;;;4955049;28;20833;-74
2022/04/12 10:23:23;;;;;;;3.30;2.50;;;;;;;;;;4955303;28;20511;-75
2022/04/12 10:25:53;;;;;;;4.73;2.93;;;;;;;;;;4955452;28;20783;-73
2022/04/12 10:28:20;;;;;;;5.07;3.40;;;;;;;;;;4955116;28;20949;-73
2022/04/12 10:30:46;;;;;;;2.30;2.10;;;;;;;;;;4954768;28;20445;-73
2022/04/12 10:33:27;;;;;;;2.40;2.13;;;;;;;;;;4955208;28;20467;-73
2022/04/12 10:35:56;;;;;;;3.63;2.20;;;;;;;;;;4955724;28;20409;-71
2022/04/12 10:38:23;;;;;;;3.57;2.73;;;;;;;;;;4955382;28;20472;-71
2022/04/12 10:40:56;;;;;;;4.13;3.13;;;;;;;;;;4954914;28;20487;-71
2022/04/12 10:43:33;;;;;;;6.07;4.00;;;;;;;;;;4955112;28;20468;-72
2022/04/12 10:46:00;;;;;;;8.47;3.30;;;;;;;;;;4955402;28;20417;-73
2022/04/12 10:48:29;;;;;;;6.30;4.10;;;;;;;;;;4955210;28;20764;-74
2022/04/12 10:50:58;;;;;;;5.20;3.10;;;;;;;;;;4954834;28;20468;-74
2022/04/12 10:53:39;;;;;;;4.97;3.07;;;;;;;;;;4955342;28;20412;-74
2022/04/12 10:56:12;;;;;;;4.00;3.27;;;;;;;;;;4955117;28;20530;-73
2022/04/12 10:58:38;;;;;;;4.73;3.67;;;;;;;;;;4958854;28;20496;-74
2022/04/12 11:01:05;;;;;;;4.70;3.10;;;;;;;;;;4958624;28;20802;-73
2022/04/12 11:03:40;;;;;;;9.60;3.33;;;;;;;;;;4958944;28;20468;-73
2022/04/12 11:06:27;;;;;;;7.80;3.60;;;;;;;;;;4973745;28;20501;-75
2022/04/12 11:09:07;;;;;;;9.90;3.87;;;;;;;;;;4958487;28;20932;-74
2022/04/12 11:11:41;;;;;;;3.13;2.77;;;;;;;;;;4958531;28;20468;-74
2022/04/12 11:14:22;;;;;;;5.60;2.40;;;;;;;;;;4958853;28;20405;-72
2022/04/12 11:16:50;;;;;;;6.57;2.70;;;;;;;;;;4958754;28;20886;-74
2022/04/12 11:19:20;;;;;;;5.57;2.40;;;;;;;;;;4958704;28;20423;-73
2022/04/12 11:21:51;;;;;;;4.37;2.90;;;;;;;;;;4958284;28;20961;-73
2022/04/12 11:24:17;;;;;;;3.57;2.20;;;;;;;;;;4958581;28;20898;-74
2022/04/12 11:26:48;;;;;;;3.77;2.10;;;;;;;;;;4958510;28;20496;-73
2022/04/12 11:29:17;;;;;;;2.73;1.73;;;;;;;;;;4958543;28;20472;-74
2022/04/12 11:31:45;;;;;;;3.30;2.27;;;;;;;;;;4957807;28;20462;-71
2022/04/12 11:34:12;;;;;;;2.13;1.60;;;;;;;;;;4958361;28;20416;-73
2022/04/12 11:36:39;;;;;;;4.20;1.90;;;;;;;;;;4958224;28;20816;-72
2022/04/12 11:39:06;;;;;;;3.50;2.00;;;;;;;;;;4958159;28;20424;-72
2022/04/12 11:41:32;;;;;;;5.20;1.73;;;;;;;;;;4957695;28;20803;-74
2022/04/12 11:43:59;;;;;;;2.03;1.83;;;;;;;;;;4958193;28;20412;-75
2022/04/12 11:46:25;;;;;;;1.93;1.50;;;;;;;;;;4958111;28;20931;-73
2022/04/12 11:48:51;;;;;;;2.53;1.73;;;;;;;;;;4958089;28;20452;-74
2022/04/12 11:51:17;;;;;;;4.63;2.03;;;;;;;;;;4957676;28;20436;-73
2022/04/12 11:53:50;;;;;;;3.50;2.40;;;;;;;;;;4958042;28;20423;-72
2022/04/12 11:56:16;;;;;;;4.33;2.30;;;;;;;;;;4957886;28;20446;-73
2022/04/12 11:58:45;;;;;;;3.23;1.70;;;;;;;;;;4957861;28;20429;-73
2022/04/12 12:01:13;;;;;;;4.77;2.30;;;;;;;;;;4957226;28;20503;-73
2022/04/12 12:03:41;;;;;;;6.97;2.40;;;;;;;;;;4957559;28;20472;-71
2022/04/12 12:06:09;;;;;;;2.40;1.90;;;;;;;;;;4957685;28;20407;-74
2022/04/12 12:08:35;;;;;;;5.73;2.40;;;;;;;;;;4957534;28;20421;-72
2022/04/12 12:11:11;;;;;;;6.83;2.13;;;;;;;;;;4957285;28;20507;-72
2022/04/12 12:13:37;;;;;;;4.90;2.20;;;;;;;;;;4972323;28;20418;-74
2022/04/12 12:16:13;;;;;;;3.23;2.07;;;;;;;;;;4957833;28;20505;-73
2022/04/12 12:18:40;;;;;;;6.27;2.20;;;;;;;;;;4957559;28;20420;-73
2022/04/12 12:21:06;;;;;;;2.40;2.20;;;;;;;;;;4957152;28;20869;-73
2022/04/12 12:23:32;;;;;;;4.97;2.43;;;;;;;;;;4957508;28;20476;-72
2022/04/12 12:25:58;;;;;;;3.47;1.63;;;;;;;;;;4972398;28;20419;-73
2022/04/12 12:28:25;;;;;;;6.00;2.37;;;;;;;;;;4957633;28;20793;-74
2022/04/12 12:31:17;;;;;;;2.37;1.50;;;;;;;;;;4957069;28;20421;-72
2022/04/12 12:33:47;;;;;;;4.47;1.83;;;;;;;;;;4957949;28;20488;-72
2022/04/12 12:36:17;;;;;;;4.60;2.30;;;;;;;;;;4957379;28;20555;-74
2022/04/12 12:38:44;;;;;;;2.90;1.50;;;;;;;;;;4972190;28;20478;-73
2022/04/12 12:41:10;;;;;;;4.17;1.90;;;;;;;;;;4956977;28;20465;-73
2022/04/12 12:43:36;;;;;;;4.70;1.60;;;;;;;;;;4957207;28;20507;-71
2022/04/12 12:46:08;;;;;;;2.00;1.20;;;;;;;;;;4957507;28;20448;-73
2022/04/12 12:48:34;;;;;;;2.70;1.53;;;;;;;;;;4956990;28;20409;-73
2022/04/12 12:51:04;;;;;;;3.63;1.80;;;;;;;;;;4956692;28;20472;-73
2022/04/12 12:53:30;;;;;;;3.10;1.30;;;;;;;;;;4956892;28;20417;-74
2022/04/12 12:55:56;;;;;;;2.17;1.67;;;;;;;;;;4956935;28;20933;-74
2022/04/12 12:58:29;;;;;;;3.57;1.70;;;;;;;;;;4956885;28;20548;-73
2022/04/12 13:01:01;;;;;;;3.13;1.50;;;;;;;;;;4956492;28;20429;-73
2022/04/12 13:03:28;;;;;;;2.97;1.43;;;;;;;;;;4956581;28;20449;-73
2022/04/12 13:05:55;;;;;;;1.93;1.30;;;;;;;;;;4956551;28;20409;-74
2022/04/12 13:08:24;;;;;;;2.10;1.30;;;;;;;;;;4956551;28;20413;-73
2022/04/12 13:10:51;;;;;;;3.40;1.43;;;;;;;;;;4956241;28;20413;-73
2022/04/12 13:13:17;;;;;;;2.23;1.40;;;;;;;;;;4956505;28;20421;-72
2022/04/12 13:15:43;;;;;;;2.20;1.33;;;;;;;;;;4956345;28;20524;-72
2022/04/12 13:18:10;;;;;;;2.03;1.40;;;;;;;;;;4956372;28;20503;-73
2022/04/12 13:20:36;;;;;;;5.50;2.10;;;;;;;;;;4955490;28;20412;-72
2022/04/12 13:23:02;;;;;;;2.00;1.40;;;;;;;;;;4956246;28;20476;-74
2022/04/12 13:25:30;;;;;;;3.43;1.33;;;;;;;;;;4956427;28;20417;-72
2022/04/12 13:27:56;;;;;;;3.87;1.30;;;;;;;;;;4956106;28;20523;-73
2022/04/12 13:30:22;;;;;;;3.13;1.57;;;;;;;;;;4955779;28;20423;-74
2022/04/12 13:32:49;;;;;;;5.30;1.60;;;;;;;;;;4956233;28;20437;-73
2022/04/12 13:35:17;;;;;;;4.10;1.60;;;;;;;;;;4956074;28;20414;-72
2022/04/12 13:37:43;;;;;;;4.30;1.50;;;;;;;;;;4956081;28;20444;-73
2022/04/12 13:40:09;;;;;;;2.40;1.30;;;;;;;;;;4955907;28;20475;-72
2022/04/12 13:42:36;;;;;;;3.03;1.33;;;;;;;;;;4955773;28;20474;-72
2022/04/12 13:45:02;;;;;;;2.27;1.40;;;;;;;;;;4955967;28;20903;-73
2022/04/12 13:47:28;;;;;;;3.97;1.40;;;;;;;;;;4956035;28;20913;-72
2022/04/12 13:49:56;;;;;;;6.27;1.43;;;;;;;;;;4970645;28;20432;-74
2022/04/12 13:52:24;;;;;;;1.57;1.33;;;;;;;;;;4970333;28;20953;-73
2022/04/12 13:54:50;;;;;;;1.80;1.10;;;;;;;;;;4970547;28;20441;-73
2022/04/12 13:57:16;;;;;;;3.13;1.60;;;;;;;;;;4955639;28;20411;-73
2022/04/12 13:59:42;;;;;;;1.87;1.23;;;;;;;;;;4955552;28;20932;-71
2022/04/12 14:02:08;;;;;;;3.30;1.63;;;;;;;;;;4969888;28;20994;-74
2022/04/12 14:04:34;;;;;;;4.03;1.57;;;;;;;;;;4955501;28;20938;-72
2022/04/12 14:07:00;;;;;;;5.03;1.30;;;;;;;;;;4970308;28;20420;-74
2022/04/12 14:09:29;;;;;;;2.43;1.53;;;;;;;;;;4955365;28;20471;-73
2022/04/12 14:11:55;;;;;;;5.13;1.47;;;;;;;;;;4969588;28;20449;-73
2022/04/12 14:14:21;;;;;;;5.53;1.80;;;;;;;;;;4955278;28;20484;-74
2022/04/12 14:16:48;;;;;;;4.40;1.57;;;;;;;;;;4955567;28;20417;-74
2022/04/12 14:19:14;;;;;;;2.33;1.40;;;;;;;;;;4955304;28;20421;-72
2022/04/12 14:21:41;;;;;;;2.10;1.50;;;;;;;;;;4954975;28;20791;-73
2022/04/12 14:24:07;;;;;;;3.43;1.70;;;;;;;;;;4970407;28;20429;-73
2022/04/12 14:26:34;;;;;;;2.03;1.20;;;;;;;;;;4955444;28;20424;-72
2022/04/12 14:29:00;;;;;;;3.10;1.60;;;;;;;;;;4970018;28;20421;-73
2022/04/12 14:31:26;;;;;;;2.53;1.73;;;;;;;;;;4953865;28;20424;-73
2022/04/12 14:33:52;;;;;;;3.83;1.43;;;;;;;;;;4955218;28;20428;-74
2022/04/12 14:36:18;;;;;;;3.53;1.37;;;;;;;;;;4969889;28;20421;-73
2022/04/12 14:38:44;;;;;;;3.80;1.53;;;;;;;;;;4955277;28;20429;-73
2022/04/12 14:41:10;;;;;;;2.93;1.30;;;;;;;;;;4954763;28;20825;-73
2022/04/12 14:43:36;;;;;;;3.93;1.93;;;;;;;;;;4969707;28;20977;-74
2022/04/12 14:46:02;;;;;;;6.33;1.70;;;;;;;;;;4970001;28;20935;-74